createdAt,value
2019-03-28T00:01:41.114Z,23.38
2019-03-28T00:04:08.776Z,22.80
2019-03-28T00:06:36.474Z,20.90
2019-03-28T00:09:07.769Z,25.20
2019-03-28T00:11:37.336Z,25.20
2019-03-28T00:14:04.886Z,22.17
2019-03-28T00:16:32.652Z,24.95
2019-03-28T00:19:00.229Z,24.00
2019-03-28T00:21:27.956Z,23.25
2019-03-28T00:24:03.483Z,25.25
2019-03-28T00:26:32.047Z,23.18
2019-03-28T00:28:59.768Z,23.45
2019-03-28T00:31:27.349Z,24.07
2019-03-28T00:33:54.971Z,23.60
2019-03-28T00:36:22.656Z,23.05
2019-03-28T00:38:50.329Z,23.40
2019-03-28T00:41:18.077Z,24.52
2019-03-28T00:43:45.598Z,22.90
2019-03-28T00:46:15.057Z,24.98
2019-03-28T00:48:42.781Z,22.15
2019-03-28T00:51:10.477Z,21.85
2019-03-28T00:53:38.064Z,23.47
2019-03-28T00:56:05.770Z,23.10
2019-03-28T00:58:34.182Z,24.55
2019-03-28T01:01:01.828Z,22.15
2019-03-28T01:03:29.593Z,24.70
2019-03-28T01:05:57.264Z,24.07
2019-03-28T01:08:24.739Z,22.95
2019-03-28T01:10:52.289Z,23.45
2019-03-28T01:13:19.880Z,24.15
2019-03-28T01:15:47.331Z,24.35
2019-03-28T01:18:15.082Z,21.80
2019-03-28T01:20:42.512Z,21.65
2019-03-28T01:23:10.045Z,22.60
2019-03-28T01:25:37.498Z,24.10
2019-03-28T01:28:04.987Z,22.77
2019-03-28T01:30:32.651Z,23.18
2019-03-28T01:33:00.340Z,24.87
2019-03-28T01:35:27.801Z,25.50
2019-03-28T01:37:55.517Z,22.30
2019-03-28T01:40:23.098Z,23.65
2019-03-28T01:42:50.800Z,23.25
2019-03-28T01:45:18.420Z,22.77
2019-03-28T01:47:46.123Z,24.18
2019-03-28T01:50:13.718Z,25.17
2019-03-28T01:52:41.336Z,23.18
2019-03-28T01:55:08.796Z,23.95
2019-03-28T01:57:36.215Z,24.52
2019-03-28T02:00:04.110Z,22.45
2019-03-28T02:02:31.619Z,24.27
2019-03-28T02:05:00.333Z,22.22
2019-03-28T02:07:27.855Z,20.77
2019-03-28T02:09:55.320Z,21.82
2019-03-28T02:12:22.911Z,22.17
2019-03-28T02:14:50.547Z,23.20
2019-03-28T02:17:18.156Z,24.70
2019-03-28T02:19:45.706Z,23.90
2019-03-28T02:22:14.582Z,19.67
2019-03-28T02:24:42.186Z,22.93
2019-03-28T02:27:09.737Z,22.98
2019-03-28T02:29:37.252Z,24.67
2019-03-28T02:32:04.890Z,20.92
2019-03-28T02:34:34.500Z,20.77
2019-03-28T02:37:02.168Z,22.48
2019-03-28T02:39:29.852Z,21.85
2019-03-28T02:41:57.603Z,21.95
2019-03-28T02:44:25.216Z,20.60
2019-03-28T02:46:52.832Z,21.23
2019-03-28T02:49:20.686Z,21.95
2019-03-28T02:51:49.332Z,21.57
2019-03-28T02:54:16.903Z,22.42
2019-03-28T02:56:44.730Z,23.77
2019-03-28T02:59:12.254Z,21.00
2019-03-28T03:01:40.486Z,23.90
2019-03-28T03:04:08.327Z,23.77
2019-03-28T03:06:37.753Z,23.05
2019-03-28T03:09:08.461Z,24.35
2019-03-28T03:11:36.068Z,24.27
2019-03-28T03:14:03.834Z,24.45
2019-03-28T03:16:31.508Z,24.37
2019-03-28T03:18:59.758Z,24.92
2019-03-28T03:21:27.510Z,22.20
2019-03-28T03:23:54.961Z,24.50
2019-03-28T03:26:22.563Z,25.48
2019-03-28T03:28:50.084Z,22.85
2019-03-28T03:31:20.872Z,21.02
2019-03-28T03:33:46.929Z,21.60
2019-03-28T03:36:14.400Z,22.30
2019-03-28T03:38:41.957Z,20.72
2019-03-28T03:41:09.504Z,21.90
2019-03-28T03:43:37.097Z,25.45
2019-03-28T03:46:04.573Z,24.80
2019-03-28T03:48:32.189Z,25.45
2019-03-28T03:50:59.652Z,24.52
2019-03-28T03:53:27.226Z,25.70
2019-03-28T03:55:54.926Z,23.12
2019-03-28T03:58:22.446Z,22.73
2019-03-28T04:00:50.097Z,23.30
2019-03-28T04:03:17.733Z,24.75
2019-03-28T04:05:45.308Z,24.55
2019-03-28T04:08:12.930Z,22.85
2019-03-28T04:10:40.936Z,24.35
2019-03-28T04:13:08.581Z,22.52
2019-03-28T04:15:38.298Z,21.75
2019-03-28T04:18:06.062Z,20.65
2019-03-28T04:20:33.716Z,21.90
2019-03-28T04:23:03.872Z,22.25
2019-03-28T04:25:31.731Z,23.05
2019-03-28T04:27:59.325Z,20.90
2019-03-28T04:30:26.972Z,19.60
2019-03-28T04:32:54.421Z,20.55
2019-03-28T04:35:22.105Z,22.98
2019-03-28T04:37:49.665Z,20.85
2019-03-28T04:40:17.220Z,22.00
2019-03-28T04:42:46.011Z,22.42
2019-03-28T04:45:13.762Z,22.17
2019-03-28T04:47:41.323Z,21.33
2019-03-28T04:50:08.961Z,23.12
2019-03-28T04:52:36.692Z,22.60
2019-03-28T04:55:04.974Z,21.75
2019-03-28T04:57:35.284Z,21.75
2019-03-28T05:00:03.298Z,20.77
2019-03-28T05:02:31.463Z,19.37
2019-03-28T05:04:59.264Z,22.90
2019-03-28T05:07:27.017Z,20.97
2019-03-28T05:09:54.527Z,23.47
2019-03-28T05:12:22.095Z,21.82
2019-03-28T05:14:49.692Z,19.27
2019-03-28T05:17:17.306Z,22.10
2019-03-28T05:19:45.031Z,20.00
2019-03-28T05:22:12.782Z,20.12
2019-03-28T05:24:40.403Z,21.93
2019-03-28T05:27:08.369Z,20.23
2019-03-28T05:29:36.072Z,20.90
2019-03-28T05:32:03.836Z,20.55
2019-03-28T05:34:31.296Z,20.05
2019-03-28T05:36:59.012Z,20.15
2019-03-28T05:39:26.750Z,19.32
2019-03-28T05:41:54.241Z,20.20
2019-03-28T05:44:22.017Z,19.37
2019-03-28T05:46:49.686Z,20.05
2019-03-28T05:49:17.361Z,21.33
2019-03-28T05:51:45.097Z,20.12
2019-03-28T05:54:12.747Z,20.32
2019-03-28T05:56:40.378Z,19.82
2019-03-28T05:59:10.997Z,19.00
2019-03-28T06:01:37.547Z,19.37
2019-03-28T06:04:05.144Z,21.55
2019-03-28T06:06:32.755Z,18.80
2019-03-28T06:09:00.810Z,20.02
2019-03-28T06:11:28.606Z,19.45
2019-03-28T06:13:56.356Z,18.30
2019-03-28T06:16:23.943Z,19.80
2019-03-28T06:18:51.635Z,20.23
2019-03-28T06:21:19.303Z,19.12
2019-03-28T06:23:46.896Z,21.35
2019-03-28T06:26:15.545Z,21.70
2019-03-28T06:28:43.217Z,20.60
2019-03-28T06:31:11.148Z,20.08
2019-03-28T06:33:38.661Z,19.42
2019-03-28T06:36:06.119Z,19.82
2019-03-28T06:38:33.628Z,20.57
2019-03-28T06:41:01.112Z,22.58
2019-03-28T06:43:28.636Z,21.17
2019-03-28T06:45:56.298Z,21.25
2019-03-28T06:48:23.829Z,19.25
2019-03-28T06:50:51.352Z,20.10
2019-03-28T06:53:18.927Z,20.75
2019-03-28T06:55:46.466Z,18.07
2019-03-28T06:58:14.041Z,19.23
2019-03-28T07:00:41.576Z,19.75
2019-03-28T07:03:09.475Z,19.80
2019-03-28T07:05:36.948Z,18.90
2019-03-28T07:08:04.576Z,21.90
2019-03-28T07:10:32.294Z,20.08
2019-03-28T07:12:59.875Z,19.55
2019-03-28T07:15:27.565Z,19.23
2019-03-28T07:17:55.394Z,20.12
2019-03-28T07:20:22.949Z,23.20
2019-03-28T07:22:50.623Z,24.80
2019-03-28T07:25:18.175Z,24.02
2019-03-28T07:27:45.702Z,23.15
2019-03-28T07:30:13.992Z,24.27
2019-03-28T07:32:43.433Z,24.98
2019-03-28T07:35:11.201Z,23.52
2019-03-28T07:37:38.792Z,22.30
2019-03-28T07:40:06.982Z,25.32
2019-03-28T07:42:34.559Z,24.87
2019-03-28T07:45:02.937Z,24.80
2019-03-28T07:47:30.578Z,24.15
2019-03-28T07:49:58.134Z,24.23
2019-03-28T07:52:25.729Z,24.20
2019-03-28T07:54:53.407Z,23.67
2019-03-28T07:57:20.980Z,23.77
2019-03-28T07:59:48.607Z,23.40
2019-03-28T08:02:16.220Z,22.93
2019-03-28T08:04:43.817Z,23.23
2019-03-28T08:07:11.445Z,21.87
2019-03-28T08:09:39.454Z,24.03
2019-03-28T08:12:21.384Z,25.07
2019-03-28T08:14:36.425Z,24.90
2019-03-28T08:17:03.861Z,26.77
2019-03-28T08:19:31.383Z,26.03
2019-03-28T08:21:58.928Z,24.10
2019-03-28T08:24:26.370Z,23.67
2019-03-28T08:26:54.364Z,25.50
2019-03-28T08:29:21.945Z,25.60
2019-03-28T08:31:51.346Z,25.03
2019-03-28T08:34:19.124Z,23.87
2019-03-28T08:36:46.847Z,24.97
2019-03-28T08:39:15.168Z,24.97
2019-03-28T08:41:42.662Z,27.17
2019-03-28T08:44:10.755Z,23.83
2019-03-28T08:46:38.531Z,23.50
2019-03-28T08:49:12.163Z,26.30
2019-03-28T08:51:43.742Z,25.17
2019-03-28T08:54:12.280Z,24.37
2019-03-28T08:56:39.783Z,22.00
2019-03-28T08:59:07.410Z,21.57
2019-03-28T09:01:35.070Z,21.23
2019-03-28T09:04:02.549Z,20.57
2019-03-28T09:06:30.276Z,17.13
2019-03-28T09:08:57.757Z,17.50
2019-03-28T09:11:25.318Z,18.40
2019-03-28T09:13:52.917Z,18.40
2019-03-28T09:16:20.595Z,19.70
2019-03-28T09:18:48.120Z,18.10
2019-03-28T09:21:15.588Z,17.47
2019-03-28T09:23:43.249Z,18.60
2019-03-28T09:26:10.794Z,17.10
2019-03-28T09:28:38.383Z,19.90
2019-03-28T09:31:18.915Z,19.70
2019-03-28T09:33:35.329Z,19.77
2019-03-28T09:36:02.824Z,16.77
2019-03-28T09:38:30.401Z,17.63
2019-03-28T09:40:57.860Z,17.87
2019-03-28T09:43:25.461Z,15.10
2019-03-28T09:45:52.891Z,16.10
2019-03-28T09:48:20.401Z,13.90
2019-03-28T09:50:48.025Z,16.13
2019-03-28T09:53:15.561Z,13.90
2019-03-28T09:55:43.192Z,14.87
2019-03-28T09:58:10.817Z,14.60
2019-03-28T10:00:38.292Z,13.80
2019-03-28T10:03:05.792Z,13.97
2019-03-28T10:05:33.421Z,12.90
2019-03-28T10:08:01.044Z,14.97
2019-03-28T10:10:28.533Z,13.20
2019-03-28T10:12:56.166Z,12.30
2019-03-28T10:15:23.798Z,12.80
2019-03-28T10:17:51.260Z,15.17
2019-03-28T10:20:18.838Z,13.07
2019-03-28T10:22:46.348Z,15.80
2019-03-28T10:25:15.846Z,14.77
2019-03-28T10:27:43.406Z,15.83
2019-03-28T10:30:12.095Z,14.53
2019-03-28T10:32:39.625Z,15.93
2019-03-28T10:35:07.341Z,15.53
2019-03-28T10:37:34.942Z,14.30
2019-03-28T10:40:02.629Z,13.57
2019-03-28T10:42:30.311Z,13.87
2019-03-28T10:44:57.907Z,15.70
2019-03-28T10:47:25.498Z,15.80
2019-03-28T10:49:52.998Z,14.60
2019-03-28T10:52:20.613Z,12.17
2019-03-28T10:54:48.266Z,13.67
2019-03-28T10:57:29.505Z,12.60
2019-03-28T10:59:45.185Z,11.53
2019-03-28T11:02:13.197Z,10.00
2019-03-28T11:04:40.917Z,9.20
2019-03-28T11:07:08.834Z,10.63
2019-03-28T11:09:36.756Z,9.40
2019-03-28T11:12:04.602Z,12.73
2019-03-28T11:14:32.504Z,13.37
2019-03-28T11:17:00.310Z,12.80
2019-03-28T11:19:28.813Z,11.40
2019-03-28T11:21:56.639Z,11.27
2019-03-28T11:24:24.565Z,10.40
2019-03-28T11:26:52.323Z,12.27
2019-03-28T11:29:19.999Z,8.27
2019-03-28T11:31:51.423Z,12.30
2019-03-28T11:34:17.237Z,11.10
2019-03-28T11:36:45.061Z,12.23
2019-03-28T11:39:13.513Z,12.10
2019-03-28T11:41:41.283Z,11.60
2019-03-28T11:44:08.837Z,10.93
2019-03-28T11:46:36.379Z,10.23
2019-03-28T11:49:04.117Z,10.83
2019-03-28T11:51:31.670Z,9.33
2019-03-28T11:53:59.386Z,9.50
2019-03-28T11:56:27.362Z,9.20
2019-03-28T11:58:56.917Z,9.80
2019-03-28T12:01:24.630Z,10.57
2019-03-28T12:03:52.284Z,10.63
2019-03-28T12:06:19.968Z,9.47
2019-03-28T12:08:47.497Z,9.43
2019-03-28T12:11:15.034Z,9.00
2019-03-28T12:13:45.161Z,9.60
2019-03-28T12:16:12.051Z,8.50
2019-03-28T12:18:39.557Z,7.33
2019-03-28T12:21:07.378Z,8.20
2019-03-28T12:23:35.002Z,9.70
2019-03-28T12:26:03.054Z,10.80
2019-03-28T12:28:30.610Z,9.50
2019-03-28T12:30:58.092Z,9.00
2019-03-28T12:33:26.070Z,10.47
2019-03-28T12:35:53.777Z,9.20
2019-03-28T12:38:22.363Z,9.90
2019-03-28T12:40:50.660Z,9.47
2019-03-28T12:43:18.347Z,9.40
2019-03-28T12:45:46.042Z,9.50
2019-03-28T12:48:13.529Z,8.90
2019-03-28T12:50:41.061Z,10.30
2019-03-28T12:53:08.757Z,8.73
2019-03-28T12:55:36.416Z,9.60
2019-03-28T12:58:04.063Z,8.03
2019-03-28T13:00:35.813Z,7.63
2019-03-28T13:03:03.282Z,7.83
2019-03-28T13:05:30.750Z,7.00
2019-03-28T13:07:58.430Z,7.10
2019-03-28T13:10:25.948Z,8.37
2019-03-28T13:12:53.614Z,6.80
2019-03-28T13:15:21.203Z,5.50
2019-03-28T13:17:48.765Z,5.70
2019-03-28T13:20:16.429Z,4.10
2019-03-28T13:22:46.027Z,5.17
2019-03-28T13:25:13.564Z,4.50
2019-03-28T13:27:41.307Z,5.17
2019-03-28T13:30:10.843Z,4.50
2019-03-28T13:32:41.929Z,5.43
2019-03-28T13:35:09.124Z,4.60
2019-03-28T13:37:36.855Z,4.37
2019-03-28T13:40:04.714Z,3.90
2019-03-28T13:42:32.342Z,3.90
2019-03-28T13:44:59.997Z,4.00
2019-03-28T13:47:27.515Z,3.77
2019-03-28T13:49:54.973Z,4.00
2019-03-28T13:52:22.818Z,4.47
2019-03-28T13:54:52.931Z,3.80
2019-03-28T13:57:20.046Z,3.87
2019-03-28T13:59:47.671Z,2.97
2019-03-28T14:02:15.136Z,2.90
2019-03-28T14:04:42.834Z,2.97
2019-03-28T14:07:10.326Z,3.23
2019-03-28T14:09:38.266Z,3.30
2019-03-28T14:12:05.838Z,2.90
2019-03-28T14:14:33.496Z,3.10
2019-03-28T14:17:01.185Z,3.60
2019-03-28T14:19:28.833Z,3.43
2019-03-28T14:21:56.758Z,4.30
2019-03-28T14:24:24.428Z,3.07
2019-03-28T14:26:52.610Z,2.60
2019-03-28T14:29:20.280Z,2.77
2019-03-28T14:31:47.895Z,3.20
2019-03-28T14:34:15.543Z,2.37
2019-03-28T14:36:43.122Z,3.03
2019-03-28T14:39:10.799Z,3.20
2019-03-28T14:41:38.552Z,3.07
2019-03-28T14:44:06.013Z,3.90
2019-03-28T14:46:33.581Z,3.43
2019-03-28T14:49:01.287Z,3.57
2019-03-28T14:51:28.940Z,3.40
2019-03-28T14:53:56.483Z,3.70
2019-03-28T14:56:24.628Z,3.80
2019-03-28T14:58:53.869Z,4.40
2019-03-28T15:01:21.377Z,3.90
2019-03-28T15:03:48.843Z,4.47
2019-03-28T15:06:16.442Z,4.03
2019-03-28T15:08:44.055Z,3.87
2019-03-28T15:11:11.524Z,4.60
2019-03-28T15:13:40.582Z,4.37
2019-03-28T15:16:08.272Z,4.77
2019-03-28T15:18:37.045Z,4.73
2019-03-28T15:21:04.667Z,4.30
2019-03-28T15:23:32.376Z,4.90
2019-03-28T15:26:00.001Z,4.93
2019-03-28T15:28:27.675Z,5.37
2019-03-28T15:30:55.790Z,5.00
2019-03-28T15:33:38.387Z,5.13
2019-03-28T15:35:54.917Z,4.93
2019-03-28T15:38:22.515Z,5.47
2019-03-28T15:40:50.043Z,5.20
2019-03-28T15:43:17.589Z,5.27
2019-03-28T15:45:45.160Z,5.00
2019-03-28T15:48:12.639Z,5.13
2019-03-28T15:50:40.177Z,4.40
2019-03-28T15:53:07.711Z,4.83
2019-03-28T15:55:35.269Z,4.20
2019-03-28T15:58:02.857Z,4.70
2019-03-28T16:00:30.341Z,4.67
2019-03-28T16:02:57.871Z,4.43
2019-03-28T16:05:25.412Z,5.17
2019-03-28T16:07:53.077Z,4.50
2019-03-28T16:10:20.813Z,5.20
2019-03-28T16:12:48.369Z,4.80
2019-03-28T16:15:15.928Z,4.67
2019-03-28T16:17:43.727Z,4.50
2019-03-28T16:20:11.696Z,4.30
2019-03-28T16:22:39.319Z,5.50
2019-03-28T16:25:06.953Z,3.50
2019-03-28T16:27:34.501Z,4.60
2019-03-28T16:30:02.280Z,4.40
2019-03-28T16:32:29.969Z,3.67
2019-03-28T16:34:57.583Z,4.50
2019-03-28T16:37:25.183Z,4.10
2019-03-28T16:39:53.105Z,3.83
2019-03-28T16:42:26.732Z,4.10
2019-03-28T16:44:55.270Z,4.00
2019-03-28T16:47:23.174Z,4.03
2019-03-28T16:49:51.501Z,4.50
2019-03-28T16:52:19.142Z,3.53
2019-03-28T16:54:46.642Z,3.93
2019-03-28T16:57:14.191Z,3.63
2019-03-28T16:59:41.762Z,3.87
2019-03-28T17:02:09.260Z,3.67
2019-03-28T17:04:36.888Z,3.30
2019-03-28T17:07:05.453Z,4.10
2019-03-28T17:09:33.592Z,4.20
2019-03-28T17:12:01.214Z,3.90
2019-03-28T17:14:28.681Z,3.17
2019-03-28T17:16:56.300Z,4.10
2019-03-28T17:19:23.840Z,3.93
2019-03-28T17:21:51.399Z,3.83
2019-03-28T17:24:19.246Z,3.73
2019-03-28T17:26:46.908Z,3.50
2019-03-28T17:29:14.441Z,3.60
2019-03-28T17:31:43.071Z,3.90
2019-03-28T17:34:10.602Z,2.70
2019-03-28T17:36:38.149Z,3.43
2019-03-28T17:39:06.524Z,4.30
2019-03-28T17:41:34.204Z,4.30
2019-03-28T17:44:01.844Z,3.53
2019-03-28T17:46:29.958Z,3.57
2019-03-28T17:48:59.582Z,3.60
2019-03-28T17:51:27.299Z,3.80
2019-03-28T17:53:56.205Z,3.07
2019-03-28T17:56:24.001Z,3.70
2019-03-28T17:58:51.975Z,2.63
2019-03-28T18:01:19.593Z,3.10
2019-03-28T18:03:47.151Z,3.57
2019-03-28T18:06:14.732Z,4.70
2019-03-28T18:08:42.652Z,4.37
2019-03-28T18:11:10.794Z,4.03
2019-03-28T18:13:38.395Z,3.13
2019-03-28T18:16:06.075Z,4.03
2019-03-28T18:18:37.199Z,4.27
2019-03-28T18:21:05.226Z,7.13
2019-03-28T18:23:33.162Z,7.97
2019-03-28T18:26:00.687Z,7.43
2019-03-28T18:28:31.341Z,4.97
2019-03-28T18:30:58.787Z,5.50
2019-03-28T18:33:29.224Z,4.20
2019-03-28T18:35:57.295Z,3.53
2019-03-28T18:38:25.402Z,2.53
2019-03-28T18:40:53.175Z,3.90
2019-03-28T18:43:21.145Z,3.70
2019-03-28T18:45:48.992Z,3.53
2019-03-28T18:48:27.328Z,3.10
2019-03-28T18:50:49.504Z,3.13
2019-03-28T18:53:17.366Z,3.23
2019-03-28T18:55:45.312Z,3.07
2019-03-28T18:58:12.975Z,2.30
2019-03-28T19:00:40.887Z,2.83
2019-03-28T19:03:10.457Z,2.47
2019-03-28T19:05:38.128Z,3.23
2019-03-28T19:08:06.615Z,3.60
2019-03-28T19:10:34.197Z,3.03
2019-03-28T19:13:04.475Z,2.90
2019-03-28T19:15:31.461Z,2.57
2019-03-28T19:17:59.693Z,3.87
2019-03-28T19:20:32.898Z,5.00
2019-03-28T19:22:58.925Z,4.37
2019-03-28T19:25:26.481Z,3.70
2019-03-28T19:27:54.106Z,4.43
2019-03-28T19:30:46.993Z,5.00
2019-03-28T19:33:14.909Z,5.23
2019-03-28T19:35:43.744Z,5.73
2019-03-28T19:38:11.286Z,6.27
2019-03-28T19:40:39.557Z,5.40
2019-03-28T19:43:19.731Z,5.70
2019-03-28T19:45:37.077Z,4.90
2019-03-28T19:48:06.467Z,4.87
2019-03-28T19:50:34.572Z,4.90
2019-03-28T19:53:02.554Z,5.10
2019-03-28T19:55:30.542Z,4.67
2019-03-28T19:57:58.594Z,4.90
2019-03-28T20:00:26.197Z,4.07
2019-03-28T20:02:53.807Z,4.10
2019-03-28T20:05:21.360Z,3.50
2019-03-28T20:07:50.069Z,4.80
2019-03-28T20:10:18.648Z,4.37
2019-03-28T20:12:46.617Z,5.00
2019-03-28T20:15:14.367Z,5.63
2019-03-28T20:17:41.921Z,4.70
2019-03-28T20:20:09.535Z,4.43
2019-03-28T20:22:37.171Z,4.77
2019-03-28T20:25:05.034Z,3.80
2019-03-28T20:27:32.977Z,4.07
2019-03-28T20:30:01.238Z,6.27
2019-03-28T20:32:29.296Z,4.80
2019-03-28T20:34:56.801Z,4.77
2019-03-28T20:37:24.367Z,4.20
2019-03-28T20:39:52.139Z,4.13
2019-03-28T20:42:21.958Z,3.43
2019-03-28T20:44:49.633Z,5.40
2019-03-28T20:47:17.314Z,4.33
2019-03-28T20:49:46.679Z,4.00
2019-03-28T20:52:14.778Z,3.70
2019-03-28T20:54:42.371Z,4.07
2019-03-28T20:57:10.201Z,4.13
2019-03-28T20:59:37.921Z,3.40
2019-03-28T21:02:05.375Z,3.67
2019-03-28T21:04:34.737Z,3.27
2019-03-28T21:07:02.814Z,4.30
2019-03-28T21:09:30.890Z,4.30
2019-03-28T21:11:59.371Z,4.93
2019-03-28T21:14:27.922Z,4.37
2019-03-28T21:16:58.302Z,4.30
2019-03-28T21:19:28.779Z,4.37
2019-03-28T21:22:00.636Z,5.03
2019-03-28T21:24:28.305Z,4.70
2019-03-28T21:26:56.030Z,5.40
2019-03-28T21:29:24.007Z,5.40
2019-03-28T21:31:52.101Z,5.80
2019-03-28T21:34:21.147Z,5.30
2019-03-28T21:36:49.162Z,5.33
2019-03-28T21:39:16.901Z,5.03
2019-03-28T21:41:47.074Z,5.53
2019-03-28T21:44:14.795Z,6.03
2019-03-28T21:46:42.921Z,6.57
2019-03-28T21:49:10.784Z,8.13
2019-03-28T21:51:38.432Z,7.80
2019-03-28T21:54:07.171Z,7.30
2019-03-28T21:56:34.869Z,7.10
2019-03-28T21:59:02.689Z,5.87
2019-03-28T22:01:32.716Z,5.60
2019-03-28T22:04:00.734Z,5.43
2019-03-28T22:06:42.049Z,5.23
2019-03-28T22:08:58.862Z,5.07
2019-03-28T22:11:27.006Z,4.13
2019-03-28T22:13:55.017Z,4.30
2019-03-28T22:16:24.251Z,4.10
2019-03-28T22:18:53.472Z,4.67
2019-03-28T22:21:21.340Z,5.50
2019-03-28T22:23:49.416Z,6.70
2019-03-28T22:26:17.415Z,6.30
2019-03-28T22:28:45.230Z,5.80
2019-03-28T22:31:14.684Z,5.97
2019-03-28T22:33:42.663Z,5.60
2019-03-28T22:36:10.390Z,4.97
2019-03-28T22:38:38.344Z,4.50
2019-03-28T22:41:09.052Z,6.03
2019-03-28T22:43:38.733Z,5.50
2019-03-28T22:46:06.350Z,5.90
2019-03-28T22:48:34.264Z,5.93
2019-03-28T22:51:02.000Z,5.85
2019-03-28T22:53:30.104Z,5.20
2019-03-28T22:55:58.883Z,5.90
2019-03-28T22:58:26.572Z,5.50
2019-03-28T23:00:55.345Z,6.13
2019-03-28T23:03:23.122Z,7.30
2019-03-28T23:05:50.918Z,7.70
2019-03-28T23:08:18.816Z,7.47
2019-03-28T23:10:47.948Z,5.17
2019-03-28T23:13:15.863Z,5.75
2019-03-28T23:15:43.695Z,5.03
2019-03-28T23:18:11.390Z,4.75
2019-03-28T23:20:39.283Z,5.33
2019-03-28T23:23:06.902Z,5.05
2019-03-28T23:25:34.754Z,4.97
2019-03-28T23:28:02.639Z,4.90
2019-03-28T23:30:35.369Z,4.30
2019-03-28T23:33:03.129Z,4.27
2019-03-28T23:35:31.006Z,6.53
2019-03-28T23:37:58.759Z,5.05
2019-03-28T23:40:26.638Z,5.33
2019-03-28T23:42:54.447Z,5.78
2019-03-28T23:45:22.071Z,5.00
2019-03-28T23:47:49.960Z,4.53
2019-03-28T23:50:17.936Z,4.40
2019-03-28T23:52:45.523Z,5.33
2019-03-28T23:55:13.703Z,4.78
2019-03-28T23:57:41.388Z,4.80
